Charlotte, North Carolina
Current Conditions -  °F | °C
As of 2:52 PM on Wednesday 26 Nov 2014 (Local Time) from KCLT Reporting Station
Broken Clouds Broken Clouds  
Wind Chill: 51°   Ceiling: 3000
Heat Index: 51°   Visibility: 10mi
Dew Point: 39°   Wind: 3mph
Humidity: 63%   Direction: 290°WNW
Pressure: 30"   Gusts: NA
Location:  35.22°N, 80.84°W
Report Text: KCLT 261952Z 29003KT 10SM BKN030 11/04 A3000 RMK AO2 SLP157 T01060039
Loading
Personal Weather Stations






























Interactive Weather Map New forecast layout! Learn more

10-Day Weather Forecast

Advertisements
Track Severe Weather on mobile